createdAt,value
2024-03-02T00:01:31.346Z,13.07
2024-03-02T00:04:33.245Z,12.83
2024-03-02T00:07:35.133Z,13.05
2024-03-02T00:10:38.347Z,12.81
2024-03-02T00:13:40.749Z,12.50
2024-03-02T00:16:42.671Z,12.42
2024-03-02T00:19:44.553Z,12.84
2024-03-02T00:22:49.408Z,12.29
2024-03-02T00:25:56.855Z,12.54
2024-03-02T00:28:58.939Z,12.37
2024-03-02T00:32:00.867Z,11.95
2024-03-02T00:35:02.764Z,11.63
2024-03-02T00:38:05.656Z,12.23
2024-03-02T00:41:10.523Z,11.98
2024-03-02T00:44:13.425Z,11.93
2024-03-02T00:47:15.309Z,11.88
2024-03-02T00:50:23.632Z,12.05
2024-03-02T00:53:33.749Z,12.17
2024-03-02T00:56:38.496Z,12.26
2024-03-02T00:59:40.413Z,12.08
2024-03-02T01:02:45.147Z,12.28
2024-03-02T01:05:47.235Z,11.61
2024-03-02T01:08:53.353Z,11.61
2024-03-02T01:11:55.830Z,12.34
2024-03-02T01:14:57.781Z,11.79
2024-03-02T01:17:59.739Z,11.83
2024-03-02T01:21:02.521Z,12.38
2024-03-02T01:24:04.849Z,12.43
2024-03-02T01:27:06.755Z,12.34
2024-03-02T01:30:08.976Z,12.90
2024-03-02T01:33:11.146Z,13.59
2024-03-02T01:36:13.092Z,13.45
2024-03-02T01:39:15.092Z,13.00
2024-03-02T01:42:17.085Z,12.86
2024-03-02T01:45:19.147Z,11.86
2024-03-02T01:48:21.205Z,11.75
2024-03-02T01:51:23.173Z,11.37
2024-03-02T01:54:25.435Z,11.58
2024-03-02T01:57:27.368Z,11.72
2024-03-02T02:00:29.524Z,12.00
2024-03-02T02:03:31.561Z,12.22
2024-03-02T02:06:33.686Z,12.14
2024-03-02T02:09:35.627Z,11.93
2024-03-02T02:12:37.890Z,11.76
2024-03-02T02:15:39.876Z,11.95
2024-03-02T02:18:41.975Z,11.91
2024-03-02T02:21:44.320Z,12.27
2024-03-02T02:24:46.434Z,11.57
2024-03-02T02:27:48.424Z,12.20
2024-03-02T02:30:50.478Z,12.27
2024-03-02T02:33:52.512Z,12.07
2024-03-02T02:36:54.503Z,11.93
2024-03-02T02:39:56.542Z,12.36
2024-03-02T02:42:59.263Z,12.48
2024-03-02T02:46:01.365Z,12.25
2024-03-02T02:49:03.364Z,12.66
2024-03-02T02:52:05.305Z,13.09
2024-03-02T02:55:08.144Z,12.89
2024-03-02T02:58:10.458Z,12.91
2024-03-02T03:01:12.497Z,12.39
2024-03-02T03:04:14.559Z,12.52
2024-03-02T03:07:16.514Z,11.78
2024-03-02T03:10:18.594Z,12.72
2024-03-02T03:13:20.536Z,12.15
2024-03-02T03:16:22.518Z,11.42
2024-03-02T03:19:24.438Z,11.74
2024-03-02T03:22:26.410Z,12.47
2024-03-02T03:25:28.385Z,12.52
2024-03-02T03:28:30.297Z,13.00
2024-03-02T03:31:32.328Z,13.26
2024-03-02T03:34:34.536Z,13.78
2024-03-02T03:37:36.952Z,13.63
2024-03-02T03:40:38.903Z,13.72
2024-03-02T03:43:40.829Z,13.45
2024-03-02T03:46:42.794Z,13.53
2024-03-02T03:49:44.702Z,13.55
2024-03-02T03:52:46.652Z,13.58
2024-03-02T03:55:50.348Z,13.62
2024-03-02T03:58:52.358Z,13.27
2024-03-02T04:01:54.647Z,13.26
2024-03-02T04:04:56.607Z,12.98
2024-03-02T04:07:58.557Z,13.21
2024-03-02T04:11:00.572Z,13.39
2024-03-02T04:14:02.541Z,12.71
2024-03-02T04:17:04.489Z,12.34
2024-03-02T04:20:06.818Z,13.15
2024-03-02T04:23:08.957Z,12.70
2024-03-02T04:26:10.970Z,12.44
2024-03-02T04:29:12.886Z,12.62
2024-03-02T04:32:14.920Z,12.68
2024-03-02T04:35:16.948Z,12.26
2024-03-02T04:38:18.994Z,12.40
2024-03-02T04:41:20.913Z,12.34
2024-03-02T04:44:22.823Z,12.40
2024-03-02T04:47:24.920Z,12.32
2024-03-02T04:50:26.856Z,12.29
2024-03-02T04:53:28.927Z,12.07
2024-03-02T04:56:33.860Z,12.47
2024-03-02T04:59:35.776Z,12.70
2024-03-02T05:02:37.745Z,12.47
2024-03-02T05:05:39.693Z,12.20
2024-03-02T05:08:41.750Z,12.50
2024-03-02T05:12:06.659Z,12.55
2024-03-02T05:15:08.927Z,12.48
2024-03-02T05:18:10.914Z,12.64
2024-03-02T05:21:12.976Z,12.10
2024-03-02T05:24:14.914Z,12.37
2024-03-02T05:27:16.963Z,12.29
2024-03-02T05:30:18.892Z,12.00
2024-03-02T05:33:23.762Z,11.87
2024-03-02T05:36:26.002Z,11.29
2024-03-02T05:39:28.242Z,11.25
2024-03-02T05:42:30.243Z,11.76
2024-03-02T05:45:32.223Z,12.06
2024-03-02T05:48:34.197Z,11.94
2024-03-02T05:51:36.191Z,11.81
2024-03-02T05:54:38.280Z,11.98
2024-03-02T05:57:50.711Z,12.55
2024-03-02T06:00:52.903Z,12.53
2024-03-02T06:03:58.282Z,12.18
2024-03-02T06:07:00.303Z,12.58
2024-03-02T06:10:02.484Z,12.89
2024-03-02T06:13:05.307Z,13.02
2024-03-02T06:16:07.593Z,12.68
2024-03-02T06:19:09.617Z,12.55
2024-03-02T06:22:11.615Z,12.51
2024-03-02T06:25:14.516Z,12.27
2024-03-02T06:28:16.782Z,12.12
2024-03-02T06:31:18.795Z,12.09
2024-03-02T06:34:20.797Z,11.82
2024-03-02T06:37:22.924Z,12.55
2024-03-02T06:40:24.858Z,12.33
2024-03-02T06:43:26.909Z,11.98
2024-03-02T06:46:28.891Z,12.22
2024-03-02T06:49:30.870Z,12.58
2024-03-02T06:52:32.761Z,11.62
2024-03-02T06:55:34.726Z,11.85
2024-03-02T06:58:36.644Z,11.27
2024-03-02T07:01:38.606Z,11.98
2024-03-02T07:04:40.851Z,11.78
2024-03-02T07:07:42.996Z,11.99
2024-03-02T07:10:45.045Z,11.82
2024-03-02T07:13:47.259Z,10.73
2024-03-02T07:16:49.204Z,12.23
2024-03-02T07:19:51.175Z,11.59
2024-03-02T07:22:53.099Z,11.98
2024-03-02T07:29:02.802Z,11.54
2024-03-02T07:32:04.950Z,11.38
2024-03-02T07:35:07.240Z,11.44
2024-03-02T07:38:09.183Z,11.88
2024-03-02T07:41:12.472Z,12.06
2024-03-02T07:44:15.851Z,12.31
2024-03-02T07:47:17.952Z,11.39
2024-03-02T07:50:20.742Z,11.47
2024-03-02T07:53:22.807Z,11.42
2024-03-02T07:56:24.697Z,11.70
2024-03-02T07:59:26.709Z,12.09
2024-03-02T08:02:28.626Z,11.86
2024-03-02T08:05:30.641Z,11.23
2024-03-02T08:08:33.093Z,11.56
2024-03-02T08:11:36.228Z,12.77
2024-03-02T08:14:38.218Z,12.91
2024-03-02T08:17:45.956Z,12.69
2024-03-02T08:20:47.948Z,12.48
2024-03-02T08:23:49.958Z,12.16
2024-03-02T08:26:51.897Z,11.61
2024-03-02T08:29:53.899Z,12.48
2024-03-02T08:32:55.936Z,11.89
2024-03-02T08:35:58.082Z,12.57
2024-03-02T08:39:00.087Z,11.87
2024-03-02T08:42:02.152Z,12.36
2024-03-02T08:45:04.261Z,11.83
2024-03-02T08:48:07.377Z,11.73
2024-03-02T08:51:11.439Z,12.45
2024-03-02T08:54:13.426Z,12.56
2024-03-02T08:57:15.331Z,11.27
2024-03-02T09:00:18.271Z,12.26
2024-03-02T09:03:20.576Z,11.96
2024-03-02T09:06:22.609Z,12.17
2024-03-02T09:09:24.656Z,11.83
2024-03-02T09:12:26.579Z,11.47
2024-03-02T09:15:28.674Z,12.41
2024-03-02T09:18:30.728Z,12.98
2024-03-02T09:21:32.808Z,12.55
2024-03-02T09:24:34.761Z,12.37
2024-03-02T09:27:40.068Z,12.70
2024-03-02T09:30:42.174Z,12.26
2024-03-02T09:33:44.223Z,12.88
2024-03-02T09:36:46.236Z,12.68
2024-03-02T09:39:48.221Z,12.92
2024-03-02T09:42:53.907Z,11.98
2024-03-02T09:45:55.967Z,12.86
2024-03-02T09:48:58.042Z,12.39
2024-03-02T09:52:00.320Z,12.05
2024-03-02T09:55:02.465Z,12.82
2024-03-02T09:58:04.683Z,12.21
2024-03-02T10:01:07.445Z,12.88
2024-03-02T10:04:09.496Z,12.57
2024-03-02T10:07:15.557Z,12.87
2024-03-02T10:10:17.692Z,12.03
2024-03-02T10:13:19.633Z,12.90
2024-03-02T10:16:21.586Z,12.85
2024-03-02T10:19:24.450Z,12.47
2024-03-02T10:22:27.890Z,12.32
2024-03-02T10:25:43.053Z,12.51
2024-03-02T10:29:00.509Z,12.43
2024-03-02T10:32:03.200Z,12.23
2024-03-02T10:35:05.390Z,11.96
2024-03-02T10:38:07.847Z,12.32
2024-03-02T10:41:09.875Z,12.70
2024-03-02T10:44:12.062Z,12.79
2024-03-02T10:47:14.022Z,12.79
2024-03-02T10:50:15.908Z,12.82
2024-03-02T10:53:17.838Z,12.49
2024-03-02T10:56:25.247Z,12.69
2024-03-02T10:59:27.200Z,12.91
2024-03-02T11:02:29.114Z,12.94
2024-03-02T11:05:32.940Z,13.19
2024-03-02T11:08:35.838Z,12.46
2024-03-02T11:11:38.394Z,12.93
2024-03-02T11:14:46.141Z,12.79
2024-03-02T11:17:48.124Z,13.32
2024-03-02T11:20:50.070Z,12.92
2024-03-02T11:23:52.125Z,12.89
2024-03-02T11:26:54.154Z,12.97
2024-03-02T11:29:56.245Z,13.17
2024-03-02T11:32:58.220Z,12.94
2024-03-02T11:36:00.168Z,13.45
2024-03-02T11:39:02.266Z,14.03
2024-03-02T11:42:04.450Z,13.20
2024-03-02T11:45:07.890Z,13.54
2024-03-02T11:48:13.705Z,13.64
2024-03-02T11:51:15.842Z,13.39
2024-03-02T11:54:17.823Z,13.41
2024-03-02T11:57:20.806Z,13.87
2024-03-02T12:00:23.045Z,13.60
2024-03-02T12:03:26.478Z,13.68
2024-03-02T12:06:28.828Z,13.23
2024-03-02T12:09:31.085Z,13.36
2024-03-02T12:12:33.106Z,13.42
2024-03-02T12:15:35.423Z,13.01
2024-03-02T12:18:37.652Z,13.19
2024-03-02T12:21:39.685Z,13.65
2024-03-02T12:24:41.994Z,13.38
2024-03-02T12:27:44.422Z,13.17
2024-03-02T12:30:46.458Z,13.36
2024-03-02T12:33:53.638Z,13.44
2024-03-02T12:36:57.528Z,13.27
2024-03-02T12:40:00.262Z,13.23
2024-03-02T12:43:02.631Z,13.09
2024-03-02T12:46:05.202Z,13.08
2024-03-02T12:49:12.234Z,12.92
2024-03-02T12:52:19.523Z,12.69
2024-03-02T12:55:23.688Z,12.98
2024-03-02T12:58:26.083Z,13.60
2024-03-02T13:01:28.430Z,13.51
2024-03-02T13:04:30.998Z,12.96
2024-03-02T13:07:35.002Z,13.37
2024-03-02T13:10:37.063Z,12.46
2024-03-02T13:13:39.999Z,13.16
2024-03-02T13:16:47.444Z,13.12
2024-03-02T13:19:56.854Z,12.81
2024-03-02T13:22:59.022Z,12.68
2024-03-02T13:26:01.675Z,12.30
2024-03-02T13:29:03.815Z,12.70
2024-03-02T13:32:06.155Z,12.67
2024-03-02T13:35:08.151Z,12.96
2024-03-02T13:38:10.294Z,12.72
2024-03-02T13:41:12.858Z,12.63
2024-03-02T13:44:14.966Z,12.58
2024-03-02T13:47:16.991Z,12.42
2024-03-02T13:50:19.006Z,12.77
2024-03-02T13:53:21.329Z,12.97
2024-03-02T13:56:23.829Z,12.42
2024-03-02T13:59:26.430Z,12.42
2024-03-02T14:02:28.496Z,12.52
2024-03-02T14:05:30.604Z,12.69
2024-03-02T14:08:35.231Z,12.43
2024-03-02T14:11:37.811Z,12.44
2024-03-02T14:14:39.878Z,12.77
2024-03-02T14:17:42.044Z,12.43
2024-03-02T14:20:46.383Z,13.11
2024-03-02T14:23:48.745Z,12.78
2024-03-02T14:26:50.866Z,12.63
2024-03-02T14:29:52.976Z,12.57
2024-03-02T14:32:55.099Z,12.38
2024-03-02T14:35:57.191Z,12.25
2024-03-02T14:38:59.210Z,12.02
2024-03-02T14:42:01.697Z,12.05
2024-03-02T14:45:06.128Z,12.28
2024-03-02T14:48:08.672Z,12.60
2024-03-02T14:51:11.855Z,12.74
2024-03-02T14:54:13.856Z,12.14
2024-03-02T14:57:15.928Z,12.40
2024-03-02T15:00:18.642Z,12.42
2024-03-02T15:03:20.734Z,11.91
2024-03-02T15:06:22.853Z,11.77
2024-03-02T15:09:24.892Z,12.47
2024-03-02T15:12:27.064Z,12.00
2024-03-02T15:15:29.325Z,12.38
2024-03-02T15:18:31.939Z,11.57
2024-03-02T15:21:33.991Z,11.81
2024-03-02T15:24:36.114Z,11.69
2024-03-02T15:27:38.228Z,12.60
2024-03-02T15:30:40.344Z,12.72
2024-03-02T15:33:42.546Z,12.66
2024-03-02T15:36:44.900Z,12.07
2024-03-02T15:39:46.988Z,12.59
2024-03-02T15:42:49.129Z,12.72
2024-03-02T15:45:51.198Z,12.90
2024-03-02T15:48:53.281Z,12.36
2024-03-02T15:51:55.375Z,12.87
2024-03-02T15:54:57.441Z,13.06
2024-03-02T15:57:59.908Z,12.57
2024-03-02T16:01:02.170Z,12.69
2024-03-02T16:04:04.409Z,13.05
2024-03-02T16:07:06.763Z,13.05
2024-03-02T16:10:10.047Z,12.78
2024-03-02T16:13:12.257Z,12.90
2024-03-02T16:16:14.366Z,12.77
2024-03-02T16:19:24.942Z,12.77
2024-03-02T16:22:31.669Z,12.59
2024-03-02T16:25:33.770Z,12.44
2024-03-02T16:28:35.890Z,12.64
2024-03-02T16:31:37.937Z,12.87
2024-03-02T16:34:40.188Z,12.11
2024-03-02T16:37:42.796Z,12.57
2024-03-02T16:40:46.197Z,12.72
2024-03-02T16:43:48.310Z,12.62
2024-03-02T16:46:50.668Z,13.12
2024-03-02T16:49:52.844Z,12.30
2024-03-02T16:52:55.120Z,12.17
2024-03-02T16:56:01.308Z,12.88
2024-03-02T16:59:03.353Z,12.79
2024-03-02T17:02:05.646Z,12.95
2024-03-02T17:05:08.479Z,12.73
2024-03-02T17:08:10.618Z,12.65
2024-03-02T17:11:12.708Z,12.57
2024-03-02T17:14:14.686Z,12.24
2024-03-02T17:17:22.124Z,12.74
2024-03-02T17:20:25.159Z,12.64
2024-03-02T17:23:32.470Z,12.61
2024-03-02T17:26:36.106Z,12.59
2024-03-02T17:29:38.225Z,12.48
2024-03-02T17:32:40.332Z,12.39
2024-03-02T17:35:42.563Z,12.60
2024-03-02T17:38:44.581Z,12.31
2024-03-02T17:41:46.596Z,12.68
2024-03-02T17:44:48.685Z,12.54
2024-03-02T17:47:50.848Z,11.86
2024-03-02T17:50:52.902Z,12.26
2024-03-02T17:53:54.969Z,11.77
2024-03-02T17:56:57.020Z,11.89
2024-03-02T17:59:58.960Z,11.62
2024-03-02T18:03:01.112Z,12.34
2024-03-02T18:06:06.474Z,12.71
2024-03-02T18:09:08.665Z,12.86
2024-03-02T18:12:10.786Z,12.44
2024-03-02T18:15:13.049Z,12.69
2024-03-02T18:18:15.152Z,12.50
2024-03-02T18:21:17.144Z,12.60
2024-03-02T18:24:22.418Z,12.09
2024-03-02T18:27:24.502Z,12.71
2024-03-02T18:30:26.603Z,12.30
2024-03-02T18:33:28.706Z,12.64
2024-03-02T18:36:30.849Z,12.12
2024-03-02T18:39:33.083Z,12.61
2024-03-02T18:42:35.338Z,12.77
2024-03-02T18:45:37.488Z,12.52
2024-03-02T18:48:40.042Z,12.51
2024-03-02T18:51:43.446Z,12.18
2024-03-02T18:54:45.520Z,11.68
2024-03-02T18:57:48.192Z,12.04
2024-03-02T19:00:50.554Z,11.66
2024-03-02T19:03:52.986Z,12.58
2024-03-02T19:06:55.788Z,11.10
2024-03-02T19:09:57.826Z,11.24
2024-03-02T19:12:59.983Z,12.21
2024-03-02T19:26:22.553Z,12.01
2024-03-02T19:33:45.520Z,12.66
2024-03-02T19:39:59.328Z,12.37
2024-03-02T19:43:01.711Z,12.69
2024-03-02T19:46:04.482Z,12.26
2024-03-02T19:49:07.573Z,12.83
2024-03-02T19:52:09.888Z,12.77
2024-03-02T19:55:14.186Z,12.94
2024-03-02T19:58:16.512Z,12.78
2024-03-02T20:01:19.321Z,12.84
2024-03-02T20:04:26.097Z,12.51
2024-03-02T20:07:28.183Z,12.69
2024-03-02T20:10:30.989Z,12.83
2024-03-02T20:13:34.710Z,12.78
2024-03-02T20:16:36.749Z,12.55
2024-03-02T20:19:42.018Z,13.07
2024-03-02T20:22:44.215Z,12.79
2024-03-02T20:25:46.363Z,13.05
2024-03-02T20:28:48.584Z,12.81
2024-03-02T20:31:50.597Z,12.81
2024-03-02T20:34:52.829Z,12.83
2024-03-02T20:37:54.906Z,12.74
2024-03-02T20:40:56.988Z,12.65
2024-03-02T20:43:59.120Z,12.05
2024-03-02T20:47:01.204Z,12.55
2024-03-02T20:50:04.194Z,12.92
2024-03-02T20:53:08.240Z,12.14
2024-03-02T20:56:10.387Z,12.54
2024-03-02T20:59:12.511Z,12.89
2024-03-02T21:02:14.676Z,13.19
2024-03-02T21:05:18.033Z,12.57
2024-03-02T21:08:20.085Z,13.13
2024-03-02T21:11:23.366Z,13.12
2024-03-02T21:14:25.466Z,13.05
2024-03-02T21:20:30.594Z,13.19
2024-03-02T21:23:34.752Z,13.06
2024-03-02T21:26:40.463Z,12.68
2024-03-02T21:29:42.563Z,13.14
2024-03-02T21:32:44.720Z,13.31
2024-03-02T21:35:46.751Z,13.26
2024-03-02T21:38:48.861Z,12.80
2024-03-02T21:41:52.326Z,13.11
2024-03-02T21:44:54.610Z,13.33
2024-03-02T21:47:56.740Z,13.24
2024-03-02T21:50:59.368Z,12.99
2024-03-02T21:54:01.372Z,13.26
2024-03-02T21:57:04.224Z,13.15
2024-03-02T22:00:06.850Z,12.49
2024-03-02T22:03:08.922Z,12.36
2024-03-02T22:06:11.345Z,12.29
2024-03-02T22:09:16.493Z,12.60
2024-03-02T22:12:18.479Z,12.70
2024-03-02T22:15:20.824Z,13.11
2024-03-02T22:18:23.164Z,12.22
2024-03-02T22:21:25.232Z,11.87
2024-03-02T22:24:27.623Z,12.61
2024-03-02T22:27:29.679Z,12.32
2024-03-02T22:30:31.780Z,12.55
2024-03-02T22:33:33.954Z,12.80
2024-03-02T22:36:36.070Z,12.80
2024-03-02T22:39:38.216Z,13.06
2024-03-02T22:42:40.387Z,13.12
2024-03-02T22:45:42.541Z,13.22
2024-03-02T22:48:44.719Z,13.59
2024-03-02T22:51:46.873Z,13.38
2024-03-02T22:54:48.973Z,13.11
2024-03-02T22:57:51.557Z,12.58
2024-03-02T23:00:59.219Z,12.63
2024-03-02T23:04:01.319Z,12.46
2024-03-02T23:07:03.412Z,12.60
2024-03-02T23:10:06.326Z,13.12
2024-03-02T23:13:08.402Z,13.40
2024-03-02T23:16:10.583Z,12.76
2024-03-02T23:19:15.337Z,12.57
2024-03-02T23:22:17.559Z,12.15
2024-03-02T23:25:19.688Z,12.45
2024-03-02T23:28:21.712Z,12.53
2024-03-02T23:31:23.808Z,12.73
2024-03-02T23:34:27.457Z,12.36
2024-03-02T23:37:30.198Z,12.91
2024-03-02T23:40:38.116Z,12.53
2024-03-02T23:43:40.420Z,11.97
2024-03-02T23:46:42.431Z,12.22
2024-03-02T23:49:44.537Z,12.26
2024-03-02T23:52:48.176Z,11.98
2024-03-02T23:55:52.799Z,11.62
2024-03-02T23:58:55.429Z,11.56
